createdAt,value
2019-04-10T00:00:26.902Z,99.90
2019-04-10T00:02:32.176Z,99.90
2019-04-10T00:04:38.771Z,99.90
2019-04-10T00:06:45.838Z,99.90
2019-04-10T00:08:51.238Z,99.90
2019-04-10T00:10:56.388Z,99.90
2019-04-10T00:13:02.434Z,99.90
2019-04-10T00:15:07.558Z,99.90
2019-04-10T00:17:13.166Z,99.90
2019-04-10T00:19:18.568Z,99.90
2019-04-10T00:21:23.839Z,99.90
2019-04-10T00:23:29.191Z,99.90
2019-04-10T00:25:34.985Z,99.90
2019-04-10T00:27:40.956Z,99.90
2019-04-10T00:29:46.761Z,99.90
2019-04-10T00:31:51.826Z,99.90
2019-04-10T00:33:57.250Z,99.90
2019-04-10T00:36:03.647Z,99.90
2019-04-10T00:38:09.293Z,99.90
2019-04-10T00:40:15.132Z,99.90
2019-04-10T00:42:21.039Z,99.90
2019-04-10T00:44:26.454Z,99.90
2019-04-10T00:46:32.536Z,99.90
2019-04-10T00:48:39.761Z,99.90
2019-04-10T00:50:45.007Z,99.90
2019-04-10T00:52:50.543Z,99.90
2019-04-10T00:54:55.886Z,99.90
2019-04-10T00:57:01.116Z,99.90
2019-04-10T00:59:06.248Z,99.90
2019-04-10T01:01:11.837Z,99.90
2019-04-10T01:03:36.406Z,99.90
2019-04-10T01:05:41.684Z,99.90
2019-04-10T01:07:47.139Z,99.90
2019-04-10T01:09:53.361Z,99.90
2019-04-10T01:11:59.369Z,99.90
2019-04-10T01:14:05.431Z,99.90
2019-04-10T01:16:11.344Z,99.90
2019-04-10T01:18:17.178Z,99.90
2019-04-10T01:20:22.378Z,99.90
2019-04-10T01:22:27.545Z,99.90
2019-04-10T01:24:33.433Z,99.90
2019-04-10T01:26:39.587Z,99.90
2019-04-10T01:28:45.146Z,99.90
2019-04-10T01:30:50.777Z,99.90
2019-04-10T01:32:56.484Z,99.90
2019-04-10T01:35:02.446Z,99.90
2019-04-10T01:37:08.324Z,99.90
2019-04-10T01:39:20.532Z,99.90
2019-04-10T01:41:25.845Z,99.90
2019-04-10T01:43:31.055Z,99.90
2019-04-10T01:45:36.182Z,99.90
2019-04-10T01:47:41.451Z,99.90
2019-04-10T01:49:46.967Z,99.90
2019-04-10T01:51:52.096Z,99.90
2019-04-10T01:53:58.406Z,99.90
2019-04-10T01:56:03.851Z,99.90
2019-04-10T01:58:13.801Z,99.90
2019-04-10T02:00:20.272Z,99.90
2019-04-10T02:02:29.841Z,99.90
2019-04-10T02:04:35.227Z,99.90
2019-04-10T02:06:41.188Z,99.90
2019-04-10T02:08:46.369Z,99.90
2019-04-10T02:10:52.255Z,99.90
2019-04-10T02:12:57.523Z,99.90
2019-04-10T02:15:03.042Z,99.90
2019-04-10T02:17:08.488Z,99.90
2019-04-10T02:19:14.273Z,99.90
2019-04-10T02:21:19.975Z,99.90
2019-04-10T02:23:26.074Z,99.90
2019-04-10T02:25:32.619Z,99.90
2019-04-10T02:27:38.415Z,99.90
2019-04-10T02:29:43.976Z,99.90
2019-04-10T02:31:50.748Z,99.90
2019-04-10T02:33:59.066Z,99.90
2019-04-10T02:36:03.769Z,99.90
2019-04-10T02:38:27.473Z,99.90
2019-04-10T02:40:17.006Z,99.90
2019-04-10T02:42:22.639Z,99.90
2019-04-10T02:44:28.798Z,99.90
2019-04-10T02:46:34.845Z,99.90
2019-04-10T02:48:41.368Z,99.90
2019-04-10T02:50:46.928Z,99.90
2019-04-10T02:52:52.444Z,99.90
2019-04-10T02:54:57.861Z,99.90
2019-04-10T02:57:03.613Z,99.90
2019-04-10T02:59:09.501Z,99.90
2019-04-10T03:01:17.467Z,99.90
2019-04-10T03:03:22.761Z,99.90
2019-04-10T03:05:27.923Z,99.90
2019-04-10T03:07:33.846Z,99.90
2019-04-10T03:09:52.902Z,99.90
2019-04-10T03:11:45.906Z,99.90
2019-04-10T03:13:51.225Z,99.90
2019-04-10T03:15:57.648Z,99.90
2019-04-10T03:18:04.178Z,99.90
2019-04-10T03:20:10.008Z,99.90
2019-04-10T03:22:16.638Z,99.90
2019-04-10T03:24:25.332Z,99.90
2019-04-10T03:26:30.514Z,99.90
2019-04-10T03:28:36.018Z,99.90
2019-04-10T03:30:41.721Z,99.90
2019-04-10T03:33:21.764Z,99.90
2019-04-10T03:35:32.549Z,99.90
2019-04-10T03:37:37.722Z,99.90
2019-04-10T03:39:43.088Z,99.90
2019-04-10T03:41:48.576Z,99.90
2019-04-10T03:43:54.273Z,99.90
2019-04-10T03:45:59.895Z,99.90
2019-04-10T03:48:06.299Z,99.90
2019-04-10T03:50:12.535Z,99.90
2019-04-10T03:52:17.587Z,99.90
2019-04-10T03:54:23.010Z,99.90
2019-04-10T03:56:29.652Z,99.90
2019-04-10T03:58:35.635Z,99.90
2019-04-10T04:00:40.697Z,99.90
2019-04-10T04:02:46.441Z,99.90
2019-04-10T04:04:51.701Z,99.90
2019-04-10T04:06:57.760Z,99.90
2019-04-10T04:09:09.364Z,99.90
2019-04-10T04:11:11.553Z,99.90
2019-04-10T04:13:17.486Z,99.90
2019-04-10T04:15:23.948Z,99.90
2019-04-10T04:17:30.362Z,99.90
2019-04-10T04:19:35.536Z,99.90
2019-04-10T04:21:41.839Z,99.90
2019-04-10T04:23:47.403Z,99.90
2019-04-10T04:25:52.990Z,99.90
2019-04-10T04:27:58.754Z,99.90
2019-04-10T04:30:04.234Z,99.90
2019-04-10T04:32:09.798Z,99.90
2019-04-10T04:34:14.822Z,99.90
2019-04-10T04:36:20.481Z,99.90
2019-04-10T04:38:25.671Z,99.90
2019-04-10T04:40:31.790Z,99.90
2019-04-10T04:42:38.535Z,99.90
2019-04-10T04:44:47.781Z,99.90
2019-04-10T04:46:53.330Z,99.90
2019-04-10T04:48:58.516Z,99.90
2019-04-10T04:51:03.567Z,99.90
2019-04-10T04:53:08.757Z,99.90
2019-04-10T04:55:14.202Z,99.90
2019-04-10T04:57:20.380Z,99.90
2019-04-10T04:59:26.184Z,99.90
2019-04-10T05:01:31.817Z,99.90
2019-04-10T05:03:37.807Z,99.90
2019-04-10T05:05:43.345Z,99.90
2019-04-10T05:07:58.416Z,99.90
2019-04-10T05:09:58.741Z,99.90
2019-04-10T05:12:03.026Z,99.90
2019-04-10T05:14:15.333Z,99.90
2019-04-10T05:16:21.056Z,99.90
2019-04-10T05:18:26.106Z,99.90
2019-04-10T05:20:41.450Z,99.90
2019-04-10T05:22:38.260Z,99.90
2019-04-10T05:24:44.622Z,99.90
2019-04-10T05:26:51.152Z,99.90
2019-04-10T05:28:57.066Z,99.90
2019-04-10T05:31:03.082Z,99.90
2019-04-10T05:33:09.121Z,99.90
2019-04-10T05:35:15.198Z,99.90
2019-04-10T05:37:21.300Z,99.90
2019-04-10T05:39:39.160Z,99.90
2019-04-10T05:41:33.621Z,99.90
2019-04-10T05:43:42.553Z,99.90
2019-04-10T05:45:48.623Z,99.90
2019-04-10T05:47:54.618Z,99.90
2019-04-10T05:50:00.551Z,99.90
2019-04-10T05:52:08.181Z,99.90
2019-04-10T05:54:13.374Z,99.90
2019-04-10T05:56:19.188Z,99.90
2019-04-10T05:58:25.603Z,99.90
2019-04-10T06:00:31.113Z,99.90
2019-04-10T06:02:36.819Z,99.90
2019-04-10T06:04:41.863Z,99.90
2019-04-10T06:06:48.470Z,99.90
2019-04-10T06:08:53.644Z,99.90
2019-04-10T06:10:58.706Z,99.90
2019-04-10T06:13:03.926Z,99.90
2019-04-10T06:15:09.237Z,96.60
2019-04-10T06:17:16.291Z,96.00
2019-04-10T06:19:22.015Z,94.60
2019-04-10T06:21:28.477Z,93.20
2019-04-10T06:23:34.370Z,92.00
2019-04-10T06:25:41.490Z,92.20
2019-04-10T06:27:46.229Z,91.60
2019-04-10T06:29:51.013Z,90.20
2019-04-10T06:31:56.834Z,87.50
2019-04-10T06:34:01.916Z,83.70
2019-04-10T06:36:07.111Z,85.00
2019-04-10T06:38:12.739Z,84.10
2019-04-10T06:40:21.273Z,81.00
2019-04-10T06:42:25.132Z,79.50
2019-04-10T06:44:30.354Z,80.50
2019-04-10T06:46:37.558Z,77.90
2019-04-10T06:48:42.463Z,74.30
2019-04-10T06:50:47.538Z,73.50
2019-04-10T06:52:52.613Z,73.70
2019-04-10T06:54:57.776Z,74.30
2019-04-10T06:57:02.920Z,72.90
2019-04-10T06:59:08.744Z,71.30
2019-04-10T07:01:14.793Z,67.10
2019-04-10T07:03:21.081Z,67.90
2019-04-10T07:05:37.098Z,63.50
2019-04-10T07:07:45.511Z,65.30
2019-04-10T07:09:40.104Z,67.80
2019-04-10T07:11:45.334Z,64.30
2019-04-10T07:13:51.227Z,61.20
2019-04-10T07:15:58.532Z,61.00
2019-04-10T07:18:04.062Z,60.00
2019-04-10T07:20:09.578Z,58.70
2019-04-10T07:22:16.209Z,56.30
2019-04-10T07:24:22.827Z,56.30
2019-04-10T07:26:38.974Z,54.40
2019-04-10T07:28:36.638Z,53.30
2019-04-10T07:30:43.482Z,52.80
2019-04-10T07:32:49.222Z,53.80
2019-04-10T07:34:59.112Z,52.70
2019-04-10T07:37:02.250Z,53.40
2019-04-10T07:39:09.618Z,51.80
2019-04-10T07:41:21.243Z,52.70
2019-04-10T07:43:25.482Z,52.80
2019-04-10T07:45:28.517Z,52.50
2019-04-10T07:47:33.661Z,52.20
2019-04-10T07:49:39.646Z,53.20
2019-04-10T07:51:47.251Z,53.50
2019-04-10T07:53:52.064Z,52.90
2019-04-10T07:56:05.295Z,52.30
2019-04-10T07:58:04.849Z,54.20
2019-04-10T08:00:12.564Z,56.30
2019-04-10T08:02:17.717Z,59.30
2019-04-10T08:04:23.242Z,57.50
2019-04-10T08:06:28.931Z,57.50
2019-04-10T08:08:34.125Z,57.80
2019-04-10T08:10:42.413Z,57.10
2019-04-10T08:12:52.170Z,56.20
2019-04-10T08:14:54.766Z,57.20
2019-04-10T08:16:59.768Z,56.50
2019-04-10T08:19:05.071Z,54.70
2019-04-10T08:21:11.299Z,55.60
2019-04-10T08:23:17.523Z,54.80
2019-04-10T08:25:22.991Z,56.90
2019-04-10T08:27:28.133Z,55.20
2019-04-10T08:29:34.301Z,56.60
2019-04-10T08:31:39.782Z,55.10
2019-04-10T08:33:44.822Z,56.20
2019-04-10T08:35:49.973Z,55.50
2019-04-10T08:37:55.360Z,55.60
2019-04-10T08:40:00.623Z,56.30
2019-04-10T08:42:06.486Z,54.10
2019-04-10T08:44:11.641Z,53.40
2019-04-10T08:46:17.737Z,54.00
2019-04-10T08:48:24.011Z,53.70
2019-04-10T08:50:30.209Z,52.50
2019-04-10T08:52:35.408Z,53.00
2019-04-10T08:54:40.532Z,55.00
2019-04-10T08:56:46.984Z,55.70
2019-04-10T08:58:52.205Z,55.60
2019-04-10T09:00:57.369Z,55.70
2019-04-10T09:03:02.515Z,56.00
2019-04-10T09:05:09.070Z,56.00
2019-04-10T09:07:14.352Z,55.90
2019-04-10T09:09:19.579Z,55.10
2019-04-10T09:11:28.437Z,53.90
2019-04-10T09:13:32.600Z,53.60
2019-04-10T09:15:38.181Z,53.10
2019-04-10T09:17:43.835Z,53.20
2019-04-10T09:19:49.846Z,54.60
2019-04-10T09:21:55.427Z,54.00
2019-04-10T09:24:00.957Z,53.10
2019-04-10T09:26:07.991Z,53.30
2019-04-10T09:28:14.019Z,52.50
2019-04-10T09:30:20.482Z,53.20
2019-04-10T09:32:26.459Z,51.60
2019-04-10T09:34:31.880Z,49.80
2019-04-10T09:36:37.535Z,50.50
2019-04-10T09:38:43.941Z,50.40
2019-04-10T09:40:49.304Z,52.40
2019-04-10T09:42:55.490Z,50.20
2019-04-10T09:45:00.821Z,49.00
2019-04-10T09:47:06.036Z,49.50
2019-04-10T09:49:12.305Z,48.70
2019-04-10T09:51:19.433Z,47.70
2019-04-10T09:53:24.616Z,49.10
2019-04-10T09:55:30.042Z,49.70
2019-04-10T09:57:35.172Z,50.20
2019-04-10T09:59:41.282Z,51.70
2019-04-10T10:01:47.291Z,51.40
2019-04-10T10:03:52.821Z,49.10
2019-04-10T10:06:00.089Z,49.40
2019-04-10T10:08:06.486Z,48.70
2019-04-10T10:10:12.786Z,49.70
2019-04-10T10:12:20.186Z,49.60
2019-04-10T10:14:26.561Z,48.40
2019-04-10T10:16:31.940Z,50.20
2019-04-10T10:18:37.365Z,50.80
2019-04-10T10:20:44.493Z,50.60
2019-04-10T10:22:49.680Z,50.70
2019-04-10T10:24:55.064Z,50.50
2019-04-10T10:27:01.890Z,50.50
2019-04-10T10:29:07.167Z,49.40
2019-04-10T10:31:12.296Z,49.20
2019-04-10T10:33:17.964Z,49.30
2019-04-10T10:35:23.289Z,48.00
2019-04-10T10:37:28.513Z,48.30
2019-04-10T10:39:34.825Z,47.40
2019-04-10T10:41:40.763Z,47.60
2019-04-10T10:43:46.752Z,47.30
2019-04-10T10:45:51.973Z,48.90
2019-04-10T10:47:58.171Z,46.10
2019-04-10T10:50:04.588Z,47.00
2019-04-10T10:52:11.303Z,47.60
2019-04-10T10:54:16.876Z,47.00
2019-04-10T10:56:22.401Z,47.60
2019-04-10T10:58:27.967Z,47.80
2019-04-10T11:00:33.555Z,49.30
2019-04-10T11:02:38.646Z,48.30
2019-04-10T11:04:43.731Z,48.20
2019-04-10T11:06:55.804Z,47.60
2019-04-10T11:08:55.739Z,49.20
2019-04-10T11:11:01.163Z,46.60
2019-04-10T11:13:06.585Z,46.10
2019-04-10T11:15:12.397Z,45.20
2019-04-10T11:17:17.646Z,45.80
2019-04-10T11:19:23.563Z,46.60
2019-04-10T11:21:29.956Z,47.40
2019-04-10T11:23:36.357Z,48.00
2019-04-10T11:25:41.784Z,48.10
2019-04-10T11:27:47.565Z,45.70
2019-04-10T11:29:53.242Z,46.50
2019-04-10T11:31:59.922Z,47.30
2019-04-10T11:34:06.306Z,47.00
2019-04-10T11:36:12.499Z,46.30
2019-04-10T11:38:19.122Z,45.70
2019-04-10T11:40:26.782Z,47.00
2019-04-10T11:42:32.240Z,48.80
2019-04-10T11:44:39.586Z,48.00
2019-04-10T11:46:46.239Z,47.60
2019-04-10T11:48:52.471Z,47.80
2019-04-10T11:51:00.687Z,46.90
2019-04-10T11:53:06.799Z,48.70
2019-04-10T11:55:17.038Z,46.40
2019-04-10T11:57:20.536Z,47.60
2019-04-10T11:59:26.304Z,47.10
2019-04-10T12:01:34.134Z,47.10
2019-04-10T12:03:41.536Z,48.00
2019-04-10T12:08:18.111Z,47.80
2019-04-10T12:12:05.460Z,46.50
2019-04-10T12:14:11.093Z,47.50
2019-04-10T12:16:16.890Z,46.80
2019-04-10T12:18:22.592Z,46.90
2019-04-10T12:20:27.586Z,47.30
2019-04-10T12:22:33.888Z,46.60
2019-04-10T12:24:39.146Z,47.30
2019-04-10T12:26:44.334Z,47.70
2019-04-10T12:28:50.044Z,47.40
2019-04-10T12:30:55.662Z,46.90
2019-04-10T12:33:01.108Z,46.50
2019-04-10T12:35:07.130Z,46.40
2019-04-10T12:37:13.269Z,48.10
2019-04-10T12:39:21.047Z,48.10
2019-04-10T12:41:26.284Z,47.20
2019-04-10T12:43:32.648Z,47.40
2019-04-10T12:45:38.192Z,47.60
2019-04-10T12:47:44.487Z,46.70
2019-04-10T12:49:50.033Z,46.70
2019-04-10T12:51:56.235Z,46.10
2019-04-10T12:54:02.519Z,45.00
2019-04-10T12:56:08.193Z,45.10
2019-04-10T12:58:17.413Z,47.10
2019-04-10T13:00:23.654Z,45.40
2019-04-10T13:02:30.194Z,45.90
2019-04-10T13:04:36.485Z,47.50
2019-04-10T13:06:42.289Z,47.30
2019-04-10T13:08:59.188Z,48.00
2019-04-10T13:10:54.690Z,48.80
2019-04-10T13:12:59.777Z,49.10
2019-04-10T13:15:07.362Z,48.70
2019-04-10T13:17:12.565Z,49.70
2019-04-10T13:19:18.797Z,50.30
2019-04-10T13:21:28.502Z,50.10
2019-04-10T13:23:35.120Z,50.40
2019-04-10T13:25:40.766Z,49.60
2019-04-10T13:27:47.307Z,50.30
2019-04-10T13:29:52.819Z,50.20
2019-04-10T13:31:59.301Z,50.20
2019-04-10T13:34:04.908Z,51.10
2019-04-10T13:36:10.006Z,50.90
2019-04-10T13:38:23.940Z,50.50
2019-04-10T13:40:23.547Z,50.10
2019-04-10T13:42:30.217Z,50.40
2019-04-10T13:44:35.741Z,50.50
2019-04-10T13:46:41.057Z,49.10
2019-04-10T13:48:47.249Z,49.10
2019-04-10T13:50:52.297Z,48.10
2019-04-10T13:52:57.541Z,48.40
2019-04-10T13:55:03.256Z,47.30
2019-04-10T13:57:08.475Z,48.20
2019-04-10T13:59:13.997Z,49.20
2019-04-10T14:01:28.285Z,49.50
2019-04-10T14:03:34.313Z,48.80
2019-04-10T14:05:41.220Z,49.50
2019-04-10T14:07:46.449Z,49.20
2019-04-10T14:09:52.519Z,49.50
2019-04-10T14:11:58.008Z,48.90
2019-04-10T14:14:04.400Z,48.80
2019-04-10T14:16:11.052Z,49.10
2019-04-10T14:18:16.623Z,49.60
2019-04-10T14:20:23.797Z,49.20
2019-04-10T14:22:29.529Z,49.40
2019-04-10T14:24:43.676Z,50.50
2019-04-10T14:26:52.721Z,51.30
2019-04-10T14:28:57.883Z,52.30
2019-04-10T14:31:08.368Z,52.00
2019-04-10T14:33:15.169Z,51.50
2019-04-10T14:35:20.296Z,52.10
2019-04-10T14:37:25.736Z,52.10
2019-04-10T14:39:31.436Z,51.40
2019-04-10T14:41:42.864Z,51.00
2019-04-10T14:43:48.156Z,50.80
2019-04-10T14:45:54.061Z,50.80
2019-04-10T14:48:00.144Z,51.40
2019-04-10T14:50:05.772Z,51.20
2019-04-10T14:52:11.122Z,51.50
2019-04-10T14:54:16.437Z,51.10
2019-04-10T14:56:22.007Z,53.40
2019-04-10T14:58:29.638Z,52.60
2019-04-10T15:00:52.949Z,52.90
2019-04-10T15:02:58.087Z,52.90
2019-04-10T15:05:03.758Z,52.70
2019-04-10T15:07:08.836Z,52.20
2019-04-10T15:09:25.371Z,53.20
2019-04-10T15:11:27.301Z,52.80
2019-04-10T15:13:32.521Z,52.70
2019-04-10T15:15:38.706Z,52.90
2019-04-10T15:17:44.344Z,53.60
2019-04-10T15:19:51.883Z,51.40
2019-04-10T15:21:56.612Z,52.00
2019-04-10T15:24:01.736Z,53.10
2019-04-10T15:26:07.944Z,53.20
2019-04-10T15:28:13.982Z,53.80
2019-04-10T15:30:20.206Z,52.70
2019-04-10T15:32:25.379Z,54.00
2019-04-10T15:34:30.454Z,53.10
2019-04-10T15:36:35.987Z,53.40
2019-04-10T15:38:41.975Z,53.20
2019-04-10T15:40:47.579Z,52.60
2019-04-10T15:42:52.702Z,53.60
2019-04-10T15:44:58.727Z,53.60
2019-04-10T15:47:14.623Z,53.50
2019-04-10T15:49:13.201Z,53.70
2019-04-10T15:51:18.349Z,54.10
2019-04-10T15:53:24.407Z,53.80
2019-04-10T15:55:30.014Z,53.20
2019-04-10T15:57:45.840Z,53.70
2019-04-10T15:59:41.566Z,52.80
2019-04-10T16:01:47.112Z,53.50
2019-04-10T16:03:55.132Z,52.70
2019-04-10T16:06:00.557Z,52.70
2019-04-10T16:08:06.003Z,52.70
2019-04-10T16:10:31.043Z,53.90
2019-04-10T16:12:36.316Z,52.60
2019-04-10T16:14:41.351Z,53.10
2019-04-10T16:16:57.331Z,53.10
2019-04-10T16:19:24.657Z,53.40
2019-04-10T16:21:29.949Z,54.00
2019-04-10T16:23:40.012Z,54.30
2019-04-10T16:25:54.594Z,54.30
2019-04-10T16:28:02.135Z,54.30
2019-04-10T16:30:10.294Z,54.90
2019-04-10T16:32:16.616Z,54.60
2019-04-10T16:34:22.684Z,54.30
2019-04-10T16:36:27.965Z,54.90
2019-04-10T16:38:33.190Z,55.00
2019-04-10T16:40:38.553Z,54.40
2019-04-10T16:42:48.788Z,54.20
2019-04-10T16:44:55.649Z,54.20
2019-04-10T16:47:01.569Z,54.20
2019-04-10T16:49:06.950Z,54.90
2019-04-10T16:51:12.377Z,55.10
2019-04-10T16:53:18.097Z,55.30
2019-04-10T16:55:24.878Z,54.90
2019-04-10T16:57:31.005Z,54.50
2019-04-10T16:59:36.146Z,54.20
2019-04-10T17:01:41.068Z,54.40
2019-04-10T17:03:46.483Z,55.10
2019-04-10T17:05:53.456Z,55.40
2019-04-10T17:07:59.333Z,55.50
2019-04-10T17:10:14.914Z,55.50
2019-04-10T17:12:12.073Z,54.90
2019-04-10T17:14:17.486Z,54.90
2019-04-10T17:16:23.918Z,55.40
2019-04-10T17:18:29.114Z,54.90
2019-04-10T17:20:38.256Z,55.50
2019-04-10T17:22:47.245Z,55.40
2019-04-10T17:24:51.503Z,56.20
2019-04-10T17:26:57.294Z,56.40
2019-04-10T17:29:03.014Z,56.00
2019-04-10T17:31:09.201Z,56.40
2019-04-10T17:33:14.336Z,56.10
2019-04-10T17:35:19.620Z,56.30
2019-04-10T17:37:25.629Z,56.30
2019-04-10T17:39:33.474Z,56.50
2019-04-10T17:41:39.661Z,56.60
2019-04-10T17:43:45.594Z,56.80
2019-04-10T17:45:51.065Z,56.60
2019-04-10T17:47:56.836Z,56.90
2019-04-10T17:50:05.604Z,57.30
2019-04-10T17:52:11.310Z,57.40
2019-04-10T17:54:17.804Z,57.40
2019-04-10T17:56:24.182Z,57.30
2019-04-10T17:58:29.686Z,58.50
2019-04-10T18:00:43.226Z,58.70
2019-04-10T18:02:49.312Z,58.70
2019-04-10T18:04:54.419Z,58.50
2019-04-10T18:07:01.155Z,58.90
2019-04-10T18:09:09.604Z,58.80
2019-04-10T18:11:16.228Z,58.60
2019-04-10T18:13:24.579Z,59.10
2019-04-10T18:15:30.805Z,58.70
2019-04-10T18:17:36.025Z,58.60
2019-04-10T18:19:41.972Z,58.60
2019-04-10T18:21:48.385Z,58.40
2019-04-10T18:23:53.635Z,58.60
2019-04-10T18:25:58.724Z,58.80
2019-04-10T18:28:07.497Z,58.90
2019-04-10T18:30:14.051Z,58.70
2019-04-10T18:32:19.142Z,58.10
2019-04-10T18:34:24.917Z,58.30
2019-04-10T18:36:30.245Z,58.10
2019-04-10T18:38:35.611Z,58.20
2019-04-10T18:40:52.189Z,57.60
2019-04-10T18:42:47.592Z,58.20
2019-04-10T18:44:53.250Z,58.70
2019-04-10T18:46:58.545Z,58.40
2019-04-10T18:49:05.192Z,58.30
2019-04-10T18:51:12.170Z,59.00
2019-04-10T18:53:19.189Z,59.00
2019-04-10T18:55:24.598Z,59.10
2019-04-10T18:57:32.400Z,59.40
2019-04-10T18:59:54.117Z,59.60
2019-04-10T19:02:19.993Z,59.60
2019-04-10T19:04:51.584Z,59.40
2019-04-10T19:06:58.811Z,59.20
2019-04-10T19:11:21.120Z,59.30
2019-04-10T19:13:19.426Z,59.70
2019-04-10T19:15:24.887Z,60.10
2019-04-10T19:17:30.920Z,60.00
2019-04-10T19:19:40.387Z,59.90
2019-04-10T19:21:43.894Z,59.80
2019-04-10T19:23:49.618Z,59.80
2019-04-10T19:25:55.030Z,60.40
2019-04-10T19:28:00.361Z,60.70
2019-04-10T19:30:09.032Z,60.10
2019-04-10T19:32:22.616Z,60.40
2019-04-10T19:34:37.215Z,61.10
2019-04-10T19:36:42.427Z,61.10
2019-04-10T19:38:47.773Z,61.80
2019-04-10T19:40:54.263Z,61.50
2019-04-10T19:43:00.000Z,61.70
2019-04-10T19:45:06.032Z,62.10
2019-04-10T19:47:12.385Z,62.10
2019-04-10T19:49:17.415Z,62.50
2019-04-10T19:51:23.746Z,62.50
2019-04-10T19:53:29.400Z,63.00
2019-04-10T19:55:34.506Z,63.10
2019-04-10T19:57:39.591Z,63.40
2019-04-10T19:59:44.725Z,63.30
2019-04-10T20:01:50.794Z,63.70
2019-04-10T20:03:56.557Z,63.40
2019-04-10T20:06:03.730Z,63.70
2019-04-10T20:08:13.102Z,64.20
2019-04-10T20:10:19.496Z,64.20
2019-04-10T20:12:24.867Z,64.60
2019-04-10T20:14:30.583Z,64.20
2019-04-10T20:16:36.040Z,64.30
2019-04-10T20:18:41.252Z,64.80
2019-04-10T20:20:46.381Z,64.20
2019-04-10T20:22:53.588Z,64.80
2019-04-10T20:24:59.718Z,64.50
2019-04-10T20:27:04.981Z,64.70
2019-04-10T20:29:12.970Z,64.30
2019-04-10T20:31:27.087Z,64.50
2019-04-10T20:33:34.580Z,64.30
2019-04-10T20:35:40.663Z,64.40
2019-04-10T20:37:47.089Z,65.00
2019-04-10T20:39:53.691Z,64.40
2019-04-10T20:42:00.914Z,64.90
2019-04-10T20:44:07.217Z,64.70
2019-04-10T20:46:13.864Z,65.20
2019-04-10T20:48:20.381Z,65.10
2019-04-10T20:50:25.985Z,65.00
2019-04-10T20:52:32.507Z,65.10
2019-04-10T20:54:41.484Z,65.20
2019-04-10T20:56:46.792Z,65.10
2019-04-10T20:58:52.672Z,65.80
2019-04-10T21:00:58.703Z,66.00
2019-04-10T21:03:03.950Z,65.70
2019-04-10T21:05:10.100Z,66.10
2019-04-10T21:07:16.248Z,66.50
2019-04-10T21:09:21.494Z,66.60
2019-04-10T21:11:26.773Z,65.90
2019-04-10T21:13:31.937Z,66.00
2019-04-10T21:15:37.622Z,66.30
2019-04-10T21:17:42.967Z,67.10
2019-04-10T21:19:49.458Z,67.80
2019-04-10T21:21:55.349Z,67.30
2019-04-10T21:24:00.714Z,67.10
2019-04-10T21:26:06.133Z,67.80
2019-04-10T21:28:11.860Z,68.40
2019-04-10T21:30:48.776Z,68.00
2019-04-10T21:33:30.252Z,68.50
2019-04-10T21:35:37.099Z,68.30
2019-04-10T21:37:42.484Z,68.80
2019-04-10T21:39:48.096Z,69.20
2019-04-10T21:41:53.544Z,68.90
2019-04-10T21:43:59.322Z,68.80
2019-04-10T21:46:06.119Z,68.80
2019-04-10T21:48:11.232Z,69.20
2019-04-10T21:50:18.574Z,69.30
2019-04-10T21:52:25.147Z,69.90
2019-04-10T21:54:31.381Z,70.00
2019-04-10T21:56:37.387Z,70.00
2019-04-10T21:58:42.356Z,70.90
2019-04-10T22:01:05.592Z,70.80
2019-04-10T22:03:11.286Z,70.30
2019-04-10T22:05:17.338Z,71.00
2019-04-10T22:07:44.828Z,71.10
2019-04-10T22:09:57.231Z,70.90
2019-04-10T22:12:05.776Z,71.10
2019-04-10T22:14:11.104Z,71.70
2019-04-10T22:16:17.833Z,71.00
2019-04-10T22:18:23.510Z,71.70
2019-04-10T22:20:29.666Z,71.70
2019-04-10T22:22:35.094Z,72.60
2019-04-10T22:24:40.514Z,72.10
2019-04-10T22:26:46.715Z,72.70
2019-04-10T22:28:52.755Z,72.20
2019-04-10T22:30:58.351Z,72.10
2019-04-10T22:33:05.331Z,71.90
2019-04-10T22:35:11.017Z,72.30
2019-04-10T22:37:16.913Z,72.90
2019-04-10T22:39:23.013Z,73.10
2019-04-10T22:41:32.101Z,73.60
2019-04-10T22:43:36.393Z,73.70
2019-04-10T22:45:41.615Z,74.20
2019-04-10T22:47:47.658Z,74.80
2019-04-10T22:49:53.600Z,74.20
2019-04-10T22:51:58.776Z,75.00
2019-04-10T22:54:04.098Z,75.50
2019-04-10T22:56:09.170Z,75.20
2019-04-10T22:58:14.962Z,76.00
2019-04-10T23:00:28.011Z,76.40
2019-04-10T23:02:33.121Z,77.30
2019-04-10T23:04:39.165Z,77.70
2019-04-10T23:06:45.071Z,78.30
2019-04-10T23:08:50.259Z,78.70
2019-04-10T23:10:55.459Z,79.20
2019-04-10T23:13:04.912Z,79.60
2019-04-10T23:15:09.212Z,80.30
2019-04-10T23:17:14.693Z,80.60
2019-04-10T23:19:20.292Z,81.50
2019-04-10T23:21:25.650Z,81.90
2019-04-10T23:23:30.988Z,82.20
2019-04-10T23:25:36.461Z,82.90
2019-04-10T23:27:42.074Z,83.30
2019-04-10T23:29:47.142Z,84.30
2019-04-10T23:31:52.322Z,84.90
2019-04-10T23:33:58.570Z,85.60
2019-04-10T23:36:03.671Z,85.80
2019-04-10T23:38:09.149Z,85.90
2019-04-10T23:40:15.086Z,86.40
2019-04-10T23:42:21.338Z,86.50
2019-04-10T23:44:26.983Z,87.40
2019-04-10T23:46:32.632Z,88.20
2019-04-10T23:48:37.672Z,87.90
2019-04-10T23:50:42.821Z,88.30
2019-04-10T23:52:47.984Z,89.20
2019-04-10T23:54:53.820Z,89.50
2019-04-10T23:57:01.059Z,90.00
2019-04-10T23:59:06.644Z,89.90
